sensor_id;sensor_type;location;lat;lon;timestamp;temperature;humidity
47576;DHT22;33304;52.456;13.328;2022-11-15T00:01:45;6.40;99.90
47576;DHT22;33304;52.456;13.328;2022-11-15T00:04:31;6.40;99.90
47576;DHT22;33304;52.456;13.328;2022-11-15T00:07:18;6.40;99.90
47576;DHT22;33304;52.456;13.328;2022-11-15T00:10:04;6.40;99.90
47576;DHT22;33304;52.456;13.328;2022-11-15T00:12:50;6.40;99.90
47576;DHT22;33304;52.456;13.328;2022-11-15T00:15:36;6.50;99.90
47576;DHT22;33304;52.456;13.328;2022-11-15T00:18:22;6.40;99.90
47576;DHT22;33304;52.456;13.328;2022-11-15T00:21:11;6.40;99.90
47576;DHT22;33304;52.456;13.328;2022-11-15T00:23:58;6.50;99.90
47576;DHT22;33304;52.456;13.328;2022-11-15T00:26:43;6.50;99.90
47576;DHT22;33304;52.456;13.328;2022-11-15T00:29:29;6.50;99.90
47576;DHT22;33304;52.456;13.328;2022-11-15T00:32:15;6.40;99.90
47576;DHT22;33304;52.456;13.328;2022-11-15T00:35:01;6.40;99.90
47576;DHT22;33304;52.456;13.328;2022-11-15T00:37:47;6.40;99.90
47576;DHT22;33304;52.456;13.328;2022-11-15T00:40:34;6.30;99.90
47576;DHT22;33304;52.456;13.328;2022-11-15T00:43:20;6.20;99.90
47576;DHT22;33304;52.456;13.328;2022-11-15T00:46:06;6.30;99.90
47576;DHT22;33304;52.456;13.328;2022-11-15T00:48:53;6.20;99.90
47576;DHT22;33304;52.456;13.328;2022-11-15T00:51:38;6.20;99.90
47576;DHT22;33304;52.456;13.328;2022-11-15T00:54:24;6.20;99.90
47576;DHT22;33304;52.456;13.328;2022-11-15T00:57:12;6.10;99.90
47576;DHT22;33304;52.456;13.328;2022-11-15T00:59:57;6.10;99.90
47576;DHT22;33304;52.456;13.328;2022-11-15T01:02:43;6.10;99.90
47576;DHT22;33304;52.456;13.328;2022-11-15T01:05:29;6.10;99.90
47576;DHT22;33304;52.456;13.328;2022-11-15T01:08:15;6.10;99.90
47576;DHT22;33304;52.456;13.328;2022-11-15T01:11:02;6.10;99.90
47576;DHT22;33304;52.456;13.328;2022-11-15T01:13:49;6.10;99.90
47576;DHT22;33304;52.456;13.328;2022-11-15T01:16:35;6.10;99.90
47576;DHT22;33304;52.456;13.328;2022-11-15T01:19:21;6.00;99.90
47576;DHT22;33304;52.456;13.328;2022-11-15T01:22:07;6.00;99.90
47576;DHT22;33304;52.456;13.328;2022-11-15T01:24:53;6.00;99.90
47576;DHT22;33304;52.456;13.328;2022-11-15T01:27:39;6.00;99.90
47576;DHT22;33304;52.456;13.328;2022-11-15T01:30:25;5.90;99.90
47576;DHT22;33304;52.456;13.328;2022-11-15T01:33:11;5.90;99.90
47576;DHT22;33304;52.456;13.328;2022-11-15T01:35:57;5.90;99.90
47576;DHT22;33304;52.456;13.328;2022-11-15T01:38:43;5.90;99.90
47576;DHT22;33304;52.456;13.328;2022-11-15T01:41:31;5.90;99.90
47576;DHT22;33304;52.456;13.328;2022-11-15T01:44:37;5.90;99.90
47576;DHT22;33304;52.456;13.328;2022-11-15T01:47:28;5.90;99.90
47576;DHT22;33304;52.456;13.328;2022-11-15T01:50:18;5.90;99.90
47576;DHT22;33304;52.456;13.328;2022-11-15T01:53:05;5.90;99.90
47576;DHT22;33304;52.456;13.328;2022-11-15T01:55:51;5.90;99.90
47576;DHT22;33304;52.456;13.328;2022-11-15T01:58:38;5.90;99.90
47576;DHT22;33304;52.456;13.328;2022-11-15T02:01:25;5.90;99.90
47576;DHT22;33304;52.456;13.328;2022-11-15T02:04:15;5.90;99.90
47576;DHT22;33304;52.456;13.328;2022-11-15T02:07:03;5.90;99.90
47576;DHT22;33304;52.456;13.328;2022-11-15T02:09:50;5.90;99.90
47576;DHT22;33304;52.456;13.328;2022-11-15T02:12:37;5.90;99.90
47576;DHT22;33304;52.456;13.328;2022-11-15T02:15:24;5.90;99.90
47576;DHT22;33304;52.456;13.328;2022-11-15T02:18:17;5.90;99.90
47576;DHT22;33304;52.456;13.328;2022-11-15T02:21:17;5.80;99.90
47576;DHT22;33304;52.456;13.328;2022-11-15T02:24:34;5.80;99.90
47576;DHT22;33304;52.456;13.328;2022-11-15T02:27:48;5.90;99.90
47576;DHT22;33304;52.456;13.328;2022-11-15T02:30:42;5.90;99.90
47576;DHT22;33304;52.456;13.328;2022-11-15T02:33:35;5.80;99.90
47576;DHT22;33304;52.456;13.328;2022-11-15T02:36:30;5.80;99.90
47576;DHT22;33304;52.456;13.328;2022-11-15T02:39:25;5.80;99.90
47576;DHT22;33304;52.456;13.328;2022-11-15T02:42:17;5.80;99.90
47576;DHT22;33304;52.456;13.328;2022-11-15T02:45:26;5.90;99.90
47576;DHT22;33304;52.456;13.328;2022-11-15T02:48:15;5.90;99.90
47576;DHT22;33304;52.456;13.328;2022-11-15T02:51:02;5.90;99.90
47576;DHT22;33304;52.456;13.328;2022-11-15T02:53:48;5.90;99.90
47576;DHT22;33304;52.456;13.328;2022-11-15T02:56:34;6.00;99.90
47576;DHT22;33304;52.456;13.328;2022-11-15T03:02:45;6.00;99.90
47576;DHT22;33304;52.456;13.328;2022-11-15T03:05:39;6.00;99.90
47576;DHT22;33304;52.456;13.328;2022-11-15T03:08:29;6.00;99.90
47576;DHT22;33304;52.456;13.328;2022-11-15T03:11:18;5.80;99.90
47576;DHT22;33304;52.456;13.328;2022-11-15T03:14:11;5.80;99.90
47576;DHT22;33304;52.456;13.328;2022-11-15T03:17:04;5.80;99.90
47576;DHT22;33304;52.456;13.328;2022-11-15T03:19:54;5.80;99.90
47576;DHT22;33304;52.456;13.328;2022-11-15T03:22:44;5.80;99.90
47576;DHT22;33304;52.456;13.328;2022-11-15T03:25:32;5.70;99.90
47576;DHT22;33304;52.456;13.328;2022-11-15T03:28:22;5.70;99.90
47576;DHT22;33304;52.456;13.328;2022-11-15T03:31:12;5.70;99.90
47576;DHT22;33304;52.456;13.328;2022-11-15T03:34:19;5.70;99.90
47576;DHT22;33304;52.456;13.328;2022-11-15T03:37:06;5.70;99.90
47576;DHT22;33304;52.456;13.328;2022-11-15T03:39:53;5.70;99.90
47576;DHT22;33304;52.456;13.328;2022-11-15T03:42:43;5.70;99.90
47576;DHT22;33304;52.456;13.328;2022-11-15T03:45:35;5.70;99.90
47576;DHT22;33304;52.456;13.328;2022-11-15T03:48:28;5.70;99.90
47576;DHT22;33304;52.456;13.328;2022-11-15T03:51:15;5.70;99.90
47576;DHT22;33304;52.456;13.328;2022-11-15T03:54:03;5.70;99.90
47576;DHT22;33304;52.456;13.328;2022-11-15T03:56:50;5.70;99.90
47576;DHT22;33304;52.456;13.328;2022-11-15T03:59:36;5.70;99.90
47576;DHT22;33304;52.456;13.328;2022-11-15T04:02:22;5.60;99.90
47576;DHT22;33304;52.456;13.328;2022-11-15T04:05:08;5.60;99.90
47576;DHT22;33304;52.456;13.328;2022-11-15T04:07:54;5.60;99.90
47576;DHT22;33304;52.456;13.328;2022-11-15T04:10:40;5.70;99.90
47576;DHT22;33304;52.456;13.328;2022-11-15T04:13:27;5.70;99.90
47576;DHT22;33304;52.456;13.328;2022-11-15T04:16:13;5.60;99.90
47576;DHT22;33304;52.456;13.328;2022-11-15T04:18:58;5.60;99.90
47576;DHT22;33304;52.456;13.328;2022-11-15T04:22:02;5.70;99.90
47576;DHT22;33304;52.456;13.328;2022-11-15T04:25:05;5.80;99.90
47576;DHT22;33304;52.456;13.328;2022-11-15T04:27:51;5.70;99.90
47576;DHT22;33304;52.456;13.328;2022-11-15T04:30:38;5.70;99.90
47576;DHT22;33304;52.456;13.328;2022-11-15T04:33:24;5.60;99.90
47576;DHT22;33304;52.456;13.328;2022-11-15T04:36:10;5.60;99.90
47576;DHT22;33304;52.456;13.328;2022-11-15T04:39:12;5.70;99.90
47576;DHT22;33304;52.456;13.328;2022-11-15T04:41:58;5.80;99.90
47576;DHT22;33304;52.456;13.328;2022-11-15T04:44:44;5.80;99.90
47576;DHT22;33304;52.456;13.328;2022-11-15T04:47:31;5.90;99.90
47576;DHT22;33304;52.456;13.328;2022-11-15T04:50:16;5.70;99.90
47576;DHT22;33304;52.456;13.328;2022-11-15T04:53:02;5.60;99.90
47576;DHT22;33304;52.456;13.328;2022-11-15T04:55:47;5.60;99.90
47576;DHT22;33304;52.456;13.328;2022-11-15T04:58:33;5.70;99.90
47576;DHT22;33304;52.456;13.328;2022-11-15T05:01:19;5.70;99.90
47576;DHT22;33304;52.456;13.328;2022-11-15T05:04:07;5.70;99.90
47576;DHT22;33304;52.456;13.328;2022-11-15T05:07:04;5.60;99.90
47576;DHT22;33304;52.456;13.328;2022-11-15T05:09:49;5.60;99.90
47576;DHT22;33304;52.456;13.328;2022-11-15T05:12:36;5.60;99.90
47576;DHT22;33304;52.456;13.328;2022-11-15T05:15:22;5.50;99.90
47576;DHT22;33304;52.456;13.328;2022-11-15T05:18:08;5.60;99.90
47576;DHT22;33304;52.456;13.328;2022-11-15T05:20:55;5.60;99.90
47576;DHT22;33304;52.456;13.328;2022-11-15T05:23:41;5.70;99.90
47576;DHT22;33304;52.456;13.328;2022-11-15T05:26:27;5.60;99.90
47576;DHT22;33304;52.456;13.328;2022-11-15T05:29:13;5.60;99.90
47576;DHT22;33304;52.456;13.328;2022-11-15T05:31:59;5.60;99.90
47576;DHT22;33304;52.456;13.328;2022-11-15T05:34:45;5.50;99.90
47576;DHT22;33304;52.456;13.328;2022-11-15T05:37:32;5.50;99.90
47576;DHT22;33304;52.456;13.328;2022-11-15T05:40:18;5.60;99.90
47576;DHT22;33304;52.456;13.328;2022-11-15T05:43:05;5.50;99.90
47576;DHT22;33304;52.456;13.328;2022-11-15T05:45:51;5.60;99.90
47576;DHT22;33304;52.456;13.328;2022-11-15T05:48:39;5.60;99.90
47576;DHT22;33304;52.456;13.328;2022-11-15T05:51:27;5.50;99.90
47576;DHT22;33304;52.456;13.328;2022-11-15T05:54:16;5.60;99.90
47576;DHT22;33304;52.456;13.328;2022-11-15T05:57:03;5.60;99.90
47576;DHT22;33304;52.456;13.328;2022-11-15T05:59:50;5.60;99.90
47576;DHT22;33304;52.456;13.328;2022-11-15T06:02:35;5.60;99.90
47576;DHT22;33304;52.456;13.328;2022-11-15T06:05:21;5.60;99.90
47576;DHT22;33304;52.456;13.328;2022-11-15T06:08:07;5.60;99.90
47576;DHT22;33304;52.456;13.328;2022-11-15T06:10:54;5.60;99.90
47576;DHT22;33304;52.456;13.328;2022-11-15T06:13:40;5.60;99.90
47576;DHT22;33304;52.456;13.328;2022-11-15T06:16:26;5.70;99.90
47576;DHT22;33304;52.456;13.328;2022-11-15T06:19:11;5.70;99.90
47576;DHT22;33304;52.456;13.328;2022-11-15T06:21:57;5.80;99.90
47576;DHT22;33304;52.456;13.328;2022-11-15T06:24:43;5.70;99.90
47576;DHT22;33304;52.456;13.328;2022-11-15T06:27:30;5.70;99.90
47576;DHT22;33304;52.456;13.328;2022-11-15T06:30:16;5.80;99.90
47576;DHT22;33304;52.456;13.328;2022-11-15T06:33:04;5.80;99.90
47576;DHT22;33304;52.456;13.328;2022-11-15T06:35:50;6.10;99.90
47576;DHT22;33304;52.456;13.328;2022-11-15T06:38:36;6.20;99.90
47576;DHT22;33304;52.456;13.328;2022-11-15T06:41:21;6.20;99.90
47576;DHT22;33304;52.456;13.328;2022-11-15T06:44:09;6.10;98.30
47576;DHT22;33304;52.456;13.328;2022-11-15T06:46:55;6.10;97.20
47576;DHT22;33304;52.456;13.328;2022-11-15T06:49:40;6.00;97.10
47576;DHT22;33304;52.456;13.328;2022-11-15T06:52:25;6.10;96.60
47576;DHT22;33304;52.456;13.328;2022-11-15T06:55:11;6.00;95.80
47576;DHT22;33304;52.456;13.328;2022-11-15T06:57:57;5.90;96.10
47576;DHT22;33304;52.456;13.328;2022-11-15T07:00:44;5.90;98.50
47576;DHT22;33304;52.456;13.328;2022-11-15T07:03:30;5.80;99.90
47576;DHT22;33304;52.456;13.328;2022-11-15T07:06:17;5.90;99.90
47576;DHT22;33304;52.456;13.328;2022-11-15T07:09:02;6.00;99.90
47576;DHT22;33304;52.456;13.328;2022-11-15T07:11:48;5.90;99.90
47576;DHT22;33304;52.456;13.328;2022-11-15T07:14:34;5.90;99.90
47576;DHT22;33304;52.456;13.328;2022-11-15T07:17:21;5.80;99.90
47576;DHT22;33304;52.456;13.328;2022-11-15T07:20:08;5.90;99.90
47576;DHT22;33304;52.456;13.328;2022-11-15T07:22:59;5.90;99.90
47576;DHT22;33304;52.456;13.328;2022-11-15T07:25:45;5.90;99.90
47576;DHT22;33304;52.456;13.328;2022-11-15T07:28:31;6.00;99.90
47576;DHT22;33304;52.456;13.328;2022-11-15T07:31:17;6.20;99.90
47576;DHT22;33304;52.456;13.328;2022-11-15T07:34:03;6.20;99.90
47576;DHT22;33304;52.456;13.328;2022-11-15T07:36:49;6.20;99.90
47576;DHT22;33304;52.456;13.328;2022-11-15T07:39:35;6.40;99.90
47576;DHT22;33304;52.456;13.328;2022-11-15T07:42:21;6.50;99.90
47576;DHT22;33304;52.456;13.328;2022-11-15T07:45:25;6.50;99.90
47576;DHT22;33304;52.456;13.328;2022-11-15T07:48:11;6.70;99.90
47576;DHT22;33304;52.456;13.328;2022-11-15T07:50:58;6.60;95.80
47576;DHT22;33304;52.456;13.328;2022-11-15T07:53:44;6.70;94.90
47576;DHT22;33304;52.456;13.328;2022-11-15T07:56:30;6.70;95.30
47576;DHT22;33304;52.456;13.328;2022-11-15T08:02:47;6.60;96.40
47576;DHT22;33304;52.456;13.328;2022-11-15T08:05:33;6.70;97.90
47576;DHT22;33304;52.456;13.328;2022-11-15T08:08:20;6.80;97.70
47576;DHT22;33304;52.456;13.328;2022-11-15T08:11:06;6.80;97.10
47576;DHT22;33304;52.456;13.328;2022-11-15T08:13:52;6.90;97.10
47576;DHT22;33304;52.456;13.328;2022-11-15T08:16:37;6.90;96.10
47576;DHT22;33304;52.456;13.328;2022-11-15T08:19:23;7.00;94.80
47576;DHT22;33304;52.456;13.328;2022-11-15T08:22:08;7.00;94.30
47576;DHT22;33304;52.456;13.328;2022-11-15T08:24:55;7.10;93.70
47576;DHT22;33304;52.456;13.328;2022-11-15T08:27:40;7.10;92.90
47576;DHT22;33304;52.456;13.328;2022-11-15T08:30:27;7.10;92.20
47576;DHT22;33304;52.456;13.328;2022-11-15T08:33:13;7.30;92.20
47576;DHT22;33304;52.456;13.328;2022-11-15T08:36:00;7.40;89.00
47576;DHT22;33304;52.456;13.328;2022-11-15T08:38:46;7.50;86.80
47576;DHT22;33304;52.456;13.328;2022-11-15T08:41:34;7.60;81.20
47576;DHT22;33304;52.456;13.328;2022-11-15T08:44:22;7.70;78.60
47576;DHT22;33304;52.456;13.328;2022-11-15T08:47:11;8.00;72.20
47576;DHT22;33304;52.456;13.328;2022-11-15T08:49:56;8.20;66.00
47576;DHT22;33304;52.456;13.328;2022-11-15T08:52:42;8.20;63.30
47576;DHT22;33304;52.456;13.328;2022-11-15T08:55:27;8.20;63.50
47576;DHT22;33304;52.456;13.328;2022-11-15T08:58:15;8.30;60.60
47576;DHT22;33304;52.456;13.328;2022-11-15T09:01:01;8.40;59.20
47576;DHT22;33304;52.456;13.328;2022-11-15T09:03:47;8.60;56.80
47576;DHT22;33304;52.456;13.328;2022-11-15T09:06:33;8.70;54.80
47576;DHT22;33304;52.456;13.328;2022-11-15T09:09:19;8.90;54.40
47576;DHT22;33304;52.456;13.328;2022-11-15T09:12:06;9.00;52.40
47576;DHT22;33304;52.456;13.328;2022-11-15T09:14:53;9.10;49.40
47576;DHT22;33304;52.456;13.328;2022-11-15T09:17:39;9.30;48.90
47576;DHT22;33304;52.456;13.328;2022-11-15T09:20:25;9.50;47.30
47576;DHT22;33304;52.456;13.328;2022-11-15T09:23:11;9.60;44.90
47576;DHT22;33304;52.456;13.328;2022-11-15T09:26:01;9.70;43.90
47576;DHT22;33304;52.456;13.328;2022-11-15T09:28:47;9.70;43.90
47576;DHT22;33304;52.456;13.328;2022-11-15T09:31:34;9.70;43.90
47576;DHT22;33304;52.456;13.328;2022-11-15T09:34:20;9.80;44.00
47576;DHT22;33304;52.456;13.328;2022-11-15T09:37:06;10.00;43.20
47576;DHT22;33304;52.456;13.328;2022-11-15T09:39:52;10.00;41.10
47576;DHT22;33304;52.456;13.328;2022-11-15T09:42:49;9.90;41.10
47576;DHT22;33304;52.456;13.328;2022-11-15T09:45:56;10.10;39.80
47576;DHT22;33304;52.456;13.328;2022-11-15T09:49:04;10.20;39.40
47576;DHT22;33304;52.456;13.328;2022-11-15T09:51:43;10.40;38.20
47576;DHT22;33304;52.456;13.328;2022-11-15T09:54:21;10.60;38.50
47576;DHT22;33304;52.456;13.328;2022-11-15T09:56:50;10.70;37.30
47576;DHT22;33304;52.456;13.328;2022-11-15T09:59:27;10.70;36.80
47576;DHT22;33304;52.456;13.328;2022-11-15T10:02:04;10.80;37.30
47576;DHT22;33304;52.456;13.328;2022-11-15T10:04:38;10.80;36.30
47576;DHT22;33304;52.456;13.328;2022-11-15T10:07:14;10.70;36.00
47576;DHT22;33304;52.456;13.328;2022-11-15T10:09:47;10.80;36.30
47576;DHT22;33304;52.456;13.328;2022-11-15T10:12:16;10.90;36.50
47576;DHT22;33304;52.456;13.328;2022-11-15T10:14:45;11.10;35.50
47576;DHT22;33304;52.456;13.328;2022-11-15T10:17:29;11.10;35.40
47576;DHT22;33304;52.456;13.328;2022-11-15T10:20:12;11.20;35.40
47576;DHT22;33304;52.456;13.328;2022-11-15T10:22:45;11.40;35.20
47576;DHT22;33304;52.456;13.328;2022-11-15T10:25:19;11.50;34.20
47576;DHT22;33304;52.456;13.328;2022-11-15T10:27:55;11.60;33.30
47576;DHT22;33304;52.456;13.328;2022-11-15T10:30:28;11.70;33.10
47576;DHT22;33304;52.456;13.328;2022-11-15T10:32:56;11.80;33.20
47576;DHT22;33304;52.456;13.328;2022-11-15T10:35:27;12.10;33.40
47576;DHT22;33304;52.456;13.328;2022-11-15T10:38:05;12.30;31.80
47576;DHT22;33304;52.456;13.328;2022-11-15T10:40:33;12.10;31.10
47576;DHT22;33304;52.456;13.328;2022-11-15T10:43:14;11.90;32.40
47576;DHT22;33304;52.456;13.328;2022-11-15T10:45:42;12.00;31.60
47576;DHT22;33304;52.456;13.328;2022-11-15T10:48:21;12.00;31.80
47576;DHT22;33304;52.456;13.328;2022-11-15T10:50:51;12.20;31.10
47576;DHT22;33304;52.456;13.328;2022-11-15T10:53:26;12.40;31.30
47576;DHT22;33304;52.456;13.328;2022-11-15T10:55:56;12.50;30.10
47576;DHT22;33304;52.456;13.328;2022-11-15T10:58:32;12.70;30.00
47576;DHT22;33304;52.456;13.328;2022-11-15T11:01:12;12.40;29.60
47576;DHT22;33304;52.456;13.328;2022-11-15T11:03:40;12.10;31.10
47576;DHT22;33304;52.456;13.328;2022-11-15T11:06:12;12.40;31.10
47576;DHT22;33304;52.456;13.328;2022-11-15T11:08:39;12.70;29.90
47576;DHT22;33304;52.456;13.328;2022-11-15T11:11:07;12.70;29.40
47576;DHT22;33304;52.456;13.328;2022-11-15T11:13:36;12.80;29.30
47576;DHT22;33304;52.456;13.328;2022-11-15T11:19:04;12.90;29.10
47576;DHT22;33304;52.456;13.328;2022-11-15T11:21:42;12.90;28.70
47576;DHT22;33304;52.456;13.328;2022-11-15T11:24:15;13.10;28.80
47576;DHT22;33304;52.456;13.328;2022-11-15T11:26:49;13.30;28.00
47576;DHT22;33304;52.456;13.328;2022-11-15T11:29:32;13.60;27.50
47576;DHT22;33304;52.456;13.328;2022-11-15T11:32:06;13.90;26.90
47576;DHT22;33304;52.456;13.328;2022-11-15T11:34:49;13.90;25.50
47576;DHT22;33304;52.456;13.328;2022-11-15T11:37:24;13.90;25.70
47576;DHT22;33304;52.456;13.328;2022-11-15T11:40:01;14.00;26.10
47576;DHT22;33304;52.456;13.328;2022-11-15T11:42:36;14.10;24.90
47576;DHT22;33304;52.456;13.328;2022-11-15T11:45:15;14.10;25.20
47576;DHT22;33304;52.456;13.328;2022-11-15T11:47:47;14.30;25.00
47576;DHT22;33304;52.456;13.328;2022-11-15T11:50:19;14.60;25.20
47576;DHT22;33304;52.456;13.328;2022-11-15T11:52:56;14.70;25.30
47576;DHT22;33304;52.456;13.328;2022-11-15T11:55:28;14.80;23.90
47576;DHT22;33304;52.456;13.328;2022-11-15T11:58:03;15.00;23.30
47576;DHT22;33304;52.456;13.328;2022-11-15T12:00:34;15.10;23.60
47576;DHT22;33304;52.456;13.328;2022-11-15T12:03:18;15.10;22.90
47576;DHT22;33304;52.456;13.328;2022-11-15T12:05:51;14.80;24.00
47576;DHT22;33304;52.456;13.328;2022-11-15T12:08:30;15.20;23.70
47576;DHT22;33304;52.456;13.328;2022-11-15T12:11:03;15.50;22.50
47576;DHT22;33304;52.456;13.328;2022-11-15T12:13:34;15.60;21.70
47576;DHT22;33304;52.456;13.328;2022-11-15T12:16:08;15.60;21.30
47576;DHT22;33304;52.456;13.328;2022-11-15T12:18:38;15.40;22.00
47576;DHT22;33304;52.456;13.328;2022-11-15T12:21:13;15.80;22.20
47576;DHT22;33304;52.456;13.328;2022-11-15T12:23:45;16.00;20.70
47576;DHT22;33304;52.456;13.328;2022-11-15T12:26:17;16.40;19.50
47576;DHT22;33304;52.456;13.328;2022-11-15T12:28:49;16.50;18.70
47576;DHT22;33304;52.456;13.328;2022-11-15T12:31:22;16.50;19.20
47576;DHT22;33304;52.456;13.328;2022-11-15T12:33:55;16.90;18.50
47576;DHT22;33304;52.456;13.328;2022-11-15T12:36:38;17.20;17.40
47576;DHT22;33304;52.456;13.328;2022-11-15T12:39:08;17.20;17.40
47576;DHT22;33304;52.456;13.328;2022-11-15T12:41:37;17.40;17.50
47576;DHT22;33304;52.456;13.328;2022-11-15T12:44:10;17.80;16.60
47576;DHT22;33304;52.456;13.328;2022-11-15T12:47:01;17.70;16.30
47576;DHT22;33304;52.456;13.328;2022-11-15T12:49:47;17.90;15.50
47576;DHT22;33304;52.456;13.328;2022-11-15T12:52:15;18.00;15.30
47576;DHT22;33304;52.456;13.328;2022-11-15T12:55:02;17.80;15.30
47576;DHT22;33304;52.456;13.328;2022-11-15T12:57:35;18.10;15.20
47576;DHT22;33304;52.456;13.328;2022-11-15T13:03:27;19.00;12.70
47576;DHT22;33304;52.456;13.328;2022-11-15T13:06:01;19.70;11.80
47576;DHT22;33304;52.456;13.328;2022-11-15T13:08:43;20.40;9.60
47576;DHT22;33304;52.456;13.328;2022-11-15T13:11:48;21.20;8.90
47576;DHT22;33304;52.456;13.328;2022-11-15T13:14:38;22.10;6.40
47576;DHT22;33304;52.456;13.328;2022-11-15T13:17:26;22.70;4.80
47576;DHT22;33304;52.456;13.328;2022-11-15T13:20:07;22.80;4.00
47576;DHT22;33304;52.456;13.328;2022-11-15T13:22:41;23.50;2.80
47576;DHT22;33304;52.456;13.328;2022-11-15T13:28:30;23.60;1.40
47576;DHT22;33304;52.456;13.328;2022-11-15T13:30:59;23.60;1.40
47576;DHT22;33304;52.456;13.328;2022-11-15T13:33:31;23.90;1.60
47576;DHT22;33304;52.456;13.328;2022-11-15T13:36:02;23.80;1.60
47576;DHT22;33304;52.456;13.328;2022-11-15T13:38:31;23.60;1.40
47576;DHT22;33304;52.456;13.328;2022-11-15T13:41:10;23.50;1.40
47576;DHT22;33304;52.456;13.328;2022-11-15T13:43:38;23.10;2.40
47576;DHT22;33304;52.456;13.328;2022-11-15T13:46:09;22.20;4.00
47576;DHT22;33304;52.456;13.328;2022-11-15T13:48:37;21.60;4.90
47576;DHT22;33304;52.456;13.328;2022-11-15T13:51:10;20.90;6.10
47576;DHT22;33304;52.456;13.328;2022-11-15T13:53:44;20.50;7.60
47576;DHT22;33304;52.456;13.328;2022-11-15T13:56:14;19.70;9.10
47576;DHT22;33304;52.456;13.328;2022-11-15T13:58:42;18.90;10.70
47576;DHT22;33304;52.456;13.328;2022-11-15T14:01:15;18.70;11.50
47576;DHT22;33304;52.456;13.328;2022-11-15T14:03:49;18.40;12.40
47576;DHT22;33304;52.456;13.328;2022-11-15T14:06:20;17.90;13.40
47576;DHT22;33304;52.456;13.328;2022-11-15T14:09:00;17.40;14.60
47576;DHT22;33304;52.456;13.328;2022-11-15T14:11:28;17.10;15.60
47576;DHT22;33304;52.456;13.328;2022-11-15T14:14:11;17.10;16.30
47576;DHT22;33304;52.456;13.328;2022-11-15T14:16:41;16.80;17.10
47576;DHT22;33304;52.456;13.328;2022-11-15T14:19:11;16.70;17.00
47576;DHT22;33304;52.456;13.328;2022-11-15T14:22:10;16.40;16.80
47576;DHT22;33304;52.456;13.328;2022-11-15T14:24:38;16.20;18.10
47576;DHT22;33304;52.456;13.328;2022-11-15T14:27:20;16.10;18.80
47576;DHT22;33304;52.456;13.328;2022-11-15T14:29:48;15.90;19.30
47576;DHT22;33304;52.456;13.328;2022-11-15T14:32:17;15.80;20.10
47576;DHT22;33304;52.456;13.328;2022-11-15T14:34:45;15.70;20.00
47576;DHT22;33304;52.456;13.328;2022-11-15T14:37:20;15.50;20.50
47576;DHT22;33304;52.456;13.328;2022-11-15T14:39:48;15.30;21.20
47576;DHT22;33304;52.456;13.328;2022-11-15T14:42:15;15.10;21.80
47576;DHT22;33304;52.456;13.328;2022-11-15T14:44:42;15.00;22.30
47576;DHT22;33304;52.456;13.328;2022-11-15T14:47:10;14.90;22.70
47576;DHT22;33304;52.456;13.328;2022-11-15T14:49:37;14.60;23.40
47576;DHT22;33304;52.456;13.328;2022-11-15T14:52:12;14.50;24.20
47576;DHT22;33304;52.456;13.328;2022-11-15T14:54:44;14.40;24.70
47576;DHT22;33304;52.456;13.328;2022-11-15T14:57:11;14.10;24.90
47576;DHT22;33304;52.456;13.328;2022-11-15T14:59:38;14.00;24.80
47576;DHT22;33304;52.456;13.328;2022-11-15T15:02:11;13.90;25.10
47576;DHT22;33304;52.456;13.328;2022-11-15T15:04:41;13.80;25.70
47576;DHT22;33304;52.456;13.328;2022-11-15T15:07:08;13.70;26.10
47576;DHT22;33304;52.456;13.328;2022-11-15T15:09:35;13.40;26.60
47576;DHT22;33304;52.456;13.328;2022-11-15T15:12:05;13.20;27.60
47576;DHT22;33304;52.456;13.328;2022-11-15T15:14:33;13.00;28.50
47576;DHT22;33304;52.456;13.328;2022-11-15T15:17:00;13.10;28.60
47576;DHT22;33304;52.456;13.328;2022-11-15T15:19:27;13.10;28.70
47576;DHT22;33304;52.456;13.328;2022-11-15T15:21:54;13.00;29.00
47576;DHT22;33304;52.456;13.328;2022-11-15T15:24:21;12.90;29.20
47576;DHT22;33304;52.456;13.328;2022-11-15T15:26:48;12.90;29.40
47576;DHT22;33304;52.456;13.328;2022-11-15T15:29:17;12.90;29.50
47576;DHT22;33304;52.456;13.328;2022-11-15T15:31:44;12.80;29.80
47576;DHT22;33304;52.456;13.328;2022-11-15T15:34:11;12.80;30.00
47576;DHT22;33304;52.456;13.328;2022-11-15T15:36:38;12.70;30.50
47576;DHT22;33304;52.456;13.328;2022-11-15T15:39:08;12.60;30.80
47576;DHT22;33304;52.456;13.328;2022-11-15T15:41:36;12.60;31.30
47576;DHT22;33304;52.456;13.328;2022-11-15T15:44:04;12.50;31.90
47576;DHT22;33304;52.456;13.328;2022-11-15T15:46:34;12.40;32.30
47576;DHT22;33304;52.456;13.328;2022-11-15T15:49:01;12.40;33.00
47576;DHT22;33304;52.456;13.328;2022-11-15T15:51:28;12.20;33.50
47576;DHT22;33304;52.456;13.328;2022-11-15T15:53:55;12.20;33.50
47576;DHT22;33304;52.456;13.328;2022-11-15T15:56:24;12.10;33.40
47576;DHT22;33304;52.456;13.328;2022-11-15T15:58:51;12.10;33.50
47576;DHT22;33304;52.456;13.328;2022-11-15T16:01:19;12.00;34.10
47576;DHT22;33304;52.456;13.328;2022-11-15T16:03:47;12.00;34.60
47576;DHT22;33304;52.456;13.328;2022-11-15T16:06:35;11.90;35.20
47576;DHT22;33304;52.456;13.328;2022-11-15T16:09:04;11.90;35.20
47576;DHT22;33304;52.456;13.328;2022-11-15T16:11:31;11.80;35.40
47576;DHT22;33304;52.456;13.328;2022-11-15T16:13:59;11.80;35.90
47576;DHT22;33304;52.456;13.328;2022-11-15T16:16:26;11.80;36.40
47576;DHT22;33304;52.456;13.328;2022-11-15T16:18:55;11.80;36.20
47576;DHT22;33304;52.456;13.328;2022-11-15T16:21:22;11.70;36.60
47576;DHT22;33304;52.456;13.328;2022-11-15T16:23:49;11.70;37.30
47576;DHT22;33304;52.456;13.328;2022-11-15T16:26:20;11.60;37.30
47576;DHT22;33304;52.456;13.328;2022-11-15T16:28:48;11.60;38.00
47576;DHT22;33304;52.456;13.328;2022-11-15T16:31:15;11.60;38.40
47576;DHT22;33304;52.456;13.328;2022-11-15T16:33:44;11.40;38.80
47576;DHT22;33304;52.456;13.328;2022-11-15T16:36:19;11.40;39.40
47576;DHT22;33304;52.456;13.328;2022-11-15T16:38:47;11.30;40.70
47576;DHT22;33304;52.456;13.328;2022-11-15T16:41:14;11.20;42.40
47576;DHT22;33304;52.456;13.328;2022-11-15T16:43:44;11.20;44.30
47576;DHT22;33304;52.456;13.328;2022-11-15T16:46:15;11.10;44.20
47576;DHT22;33304;52.456;13.328;2022-11-15T16:48:44;11.10;45.40
47576;DHT22;33304;52.456;13.328;2022-11-15T16:51:11;11.10;46.40
47576;DHT22;33304;52.456;13.328;2022-11-15T16:53:40;11.00;46.90
47576;DHT22;33304;52.456;13.328;2022-11-15T16:56:19;11.00;47.50
47576;DHT22;33304;52.456;13.328;2022-11-15T16:58:48;11.00;47.60
47576;DHT22;33304;52.456;13.328;2022-11-15T17:01:17;11.00;47.80
47576;DHT22;33304;52.456;13.328;2022-11-15T17:03:45;11.00;48.10
47576;DHT22;33304;52.456;13.328;2022-11-15T17:06:13;10.90;48.30
47576;DHT22;33304;52.456;13.328;2022-11-15T17:08:41;10.90;48.60